createdAt,value
2023-05-13T00:24:10.561Z,4.70
2023-05-13T01:20:26.025Z,5.60
2023-05-13T01:22:57.156Z,5.50
2023-05-13T01:25:29.828Z,4.70
2023-05-13T01:31:04.983Z,5.20
2023-05-13T01:33:34.784Z,4.93
2023-05-13T01:42:39.460Z,5.33
2023-05-13T01:45:12.228Z,5.07
2023-05-13T01:47:42.129Z,5.17
2023-05-13T01:53:09.746Z,5.97
2023-05-13T01:55:41.168Z,4.87
2023-05-13T01:58:14.319Z,5.77
2023-05-13T02:46:14.858Z,5.00
2023-05-13T02:48:49.230Z,5.10
2023-05-13T02:51:18.598Z,4.83
2023-05-13T02:54:16.274Z,5.53
2023-05-13T03:10:26.528Z,5.63
2023-05-13T03:12:54.389Z,4.87
2023-05-13T03:15:23.561Z,5.67
2023-05-13T03:17:51.976Z,5.60
2023-05-13T03:20:22.240Z,5.27
2023-05-13T03:22:52.169Z,5.20
2023-05-13T03:25:35.960Z,5.60
2023-05-13T03:37:25.401Z,5.27
2023-05-13T03:44:31.871Z,5.70
2023-05-13T03:47:06.907Z,5.30
2023-05-13T03:49:34.700Z,5.27
2023-05-13T03:52:03.267Z,5.97
2023-05-13T03:54:32.698Z,5.30
2023-05-13T03:57:04.310Z,4.90
2023-05-13T04:05:53.474Z,5.67
2023-05-13T04:08:25.429Z,5.37
2023-05-13T04:10:57.575Z,5.20
2023-05-13T04:13:27.839Z,5.87
2023-05-13T04:15:56.293Z,5.93
2023-05-13T04:18:56.051Z,6.40
2023-05-13T04:21:23.684Z,5.37
2023-05-13T04:23:51.412Z,6.67
2023-05-13T05:18:04.559Z,6.40
2023-05-13T05:20:32.324Z,5.93
2023-05-13T05:27:16.222Z,5.37
2023-05-13T05:32:50.589Z,5.23
2023-05-13T05:38:20.808Z,6.13
2023-05-13T05:40:48.492Z,6.17
2023-05-13T05:43:18.203Z,6.13
2023-05-13T06:01:42.783Z,5.47
2023-05-13T06:04:10.668Z,5.27
2023-05-13T06:06:39.525Z,5.20
2023-05-13T06:15:35.687Z,5.27
2023-05-13T07:28:24.877Z,4.47
2023-05-13T07:31:30.968Z,4.60
2023-05-13T07:33:58.658Z,4.77
2023-05-13T07:36:26.310Z,4.73
2023-05-13T07:38:53.702Z,4.57
2023-05-13T07:41:21.777Z,4.23
2023-05-13T07:43:49.353Z,4.60
2023-05-13T07:46:16.671Z,4.50
2023-05-13T07:48:44.295Z,3.97
2023-05-13T07:51:11.730Z,4.53
2023-05-13T07:53:39.084Z,4.63
2023-05-13T07:56:07.773Z,4.50
2023-05-13T07:58:35.085Z,4.87
2023-05-13T08:01:02.484Z,4.10
2023-05-13T08:03:32.245Z,4.57
2023-05-13T08:05:59.712Z,4.03
2023-05-13T08:08:27.060Z,4.00
2023-05-13T08:10:54.557Z,3.70
2023-05-13T08:13:25.632Z,4.23
2023-05-13T08:15:53.778Z,3.93
2023-05-13T08:18:21.164Z,4.00
2023-05-13T08:20:48.479Z,4.40
2023-05-13T08:23:16.029Z,3.97
2023-05-13T08:25:43.432Z,4.00
2023-05-13T08:28:10.763Z,3.07
2023-05-13T08:30:40.688Z,3.70
2023-05-13T08:33:08.421Z,3.30
2023-05-13T08:35:35.787Z,3.17
2023-05-13T08:38:05.370Z,3.07
2023-05-13T08:40:33.076Z,3.17
2023-05-13T08:43:04.471Z,3.70
2023-05-13T08:45:33.704Z,3.57
2023-05-13T08:48:02.816Z,3.23
2023-05-13T08:50:30.918Z,3.17
2023-05-13T08:53:02.015Z,3.23
2023-05-13T08:55:29.319Z,3.80
2023-05-13T08:57:56.683Z,3.50
2023-05-13T09:00:24.216Z,3.67
2023-05-13T09:02:51.790Z,3.30
2023-05-13T09:05:21.827Z,4.22
2023-05-13T09:07:49.498Z,3.63
2023-05-13T09:10:17.940Z,4.20
2023-05-13T09:12:54.378Z,4.00
2023-05-13T09:15:26.708Z,3.77
2023-05-13T09:17:58.404Z,4.13
2023-05-13T09:20:28.624Z,3.75
2023-05-13T09:23:07.100Z,4.03
2023-05-13T09:25:38.102Z,3.60
2023-05-13T09:28:08.633Z,3.70
2023-05-13T09:30:40.228Z,3.33
2023-05-13T09:33:20.219Z,3.40
2023-05-13T09:35:53.515Z,3.63
2023-05-13T09:38:32.704Z,3.28
2023-05-13T09:41:03.029Z,3.50
2023-05-13T09:43:34.680Z,3.40
2023-05-13T09:46:04.088Z,4.10
2023-05-13T09:48:35.096Z,3.80
2023-05-13T09:51:05.872Z,3.63
2023-05-13T09:53:33.261Z,3.43
2023-05-13T09:56:01.628Z,3.53
2023-05-13T09:58:30.647Z,3.50
2023-05-13T10:00:58.792Z,3.80
2023-05-13T10:03:31.766Z,3.57
2023-05-13T10:06:03.428Z,3.00
2023-05-13T10:08:31.471Z,3.20
2023-05-13T10:10:59.606Z,3.67
2023-05-13T10:13:31.100Z,3.90
2023-05-13T10:15:59.494Z,3.63
2023-05-13T10:18:28.971Z,3.97
2023-05-13T10:20:57.853Z,3.60
2023-05-13T10:23:28.495Z,3.77
2023-05-13T10:25:56.358Z,3.97
2023-05-13T10:28:25.590Z,3.43
2023-05-13T10:30:52.941Z,3.43
2023-05-13T10:33:21.222Z,3.93
2023-05-13T10:36:12.384Z,3.80
2023-05-13T10:39:08.759Z,3.87
2023-05-13T10:42:13.911Z,3.20
2023-05-13T10:44:42.611Z,3.53
2023-05-13T10:47:11.223Z,3.90
2023-05-13T10:49:39.597Z,3.80
2023-05-13T10:52:09.588Z,3.70
2023-05-13T10:54:40.471Z,3.50
2023-05-13T10:57:08.902Z,4.00
2023-05-13T10:59:37.628Z,3.57
2023-05-13T11:02:24.706Z,3.33
2023-05-13T11:04:59.993Z,3.57
2023-05-13T11:07:30.937Z,3.90
2023-05-13T11:09:59.817Z,3.70
2023-05-13T11:12:27.211Z,3.80
2023-05-13T11:14:58.561Z,3.70
2023-05-13T11:17:27.035Z,4.17
2023-05-13T11:19:56.893Z,4.00
2023-05-13T11:22:30.682Z,4.20
2023-05-13T11:25:10.700Z,4.10
2023-05-13T11:27:40.312Z,4.10
2023-05-13T11:30:21.513Z,4.07
2023-05-13T11:32:56.758Z,3.63
2023-05-13T11:35:32.658Z,3.97
2023-05-13T11:38:02.403Z,3.63
2023-05-13T11:40:34.566Z,3.80
2023-05-13T11:43:04.866Z,3.53
2023-05-13T11:45:33.672Z,3.83
2023-05-13T11:48:19.544Z,4.00
2023-05-13T11:50:49.887Z,3.90
2023-05-13T11:53:22.309Z,3.80
2023-05-13T11:55:49.831Z,3.93
2023-05-13T11:58:17.291Z,4.07
2023-05-13T12:00:46.533Z,3.17
2023-05-13T12:03:16.301Z,3.93
2023-05-13T12:05:47.680Z,3.73
2023-05-13T12:08:15.310Z,3.37
2023-05-13T12:10:47.937Z,3.77
2023-05-13T12:13:16.609Z,3.93
2023-05-13T12:15:49.750Z,4.00
2023-05-13T12:18:17.372Z,3.93
2023-05-13T12:20:44.753Z,4.07
2023-05-13T12:23:15.504Z,3.37
2023-05-13T12:25:43.457Z,4.30
2023-05-13T12:28:16.915Z,4.00
2023-05-13T12:31:01.962Z,4.33
2023-05-13T12:33:30.733Z,3.57
2023-05-13T12:36:25.884Z,4.20
2023-05-13T12:39:00.861Z,3.90
2023-05-13T12:41:34.715Z,3.70
2023-05-13T12:44:03.275Z,4.13
2023-05-13T12:46:31.532Z,4.10
2023-05-13T12:52:13.197Z,3.10
2023-05-13T12:54:41.008Z,2.87
2023-05-13T12:57:12.426Z,3.00
2023-05-13T13:14:20.112Z,2.87
2023-05-13T13:16:54.951Z,3.17
2023-05-13T13:19:22.436Z,3.60
2023-05-13T13:21:49.902Z,3.20
2023-05-13T13:24:19.854Z,3.30
2023-05-13T13:26:47.199Z,3.57
2023-05-13T13:29:14.706Z,3.10
2023-05-13T13:31:42.136Z,3.40
2023-05-13T13:34:12.011Z,3.17
2023-05-13T13:37:04.640Z,3.57
2023-05-13T13:39:32.067Z,3.57
2023-05-13T13:41:59.401Z,3.03
2023-05-13T13:44:28.490Z,3.30
2023-05-13T13:46:55.986Z,3.50
2023-05-13T13:49:26.807Z,3.10
2023-05-13T13:51:55.661Z,3.33
2023-05-13T13:54:35.794Z,3.30
2023-05-13T13:57:03.370Z,3.30
2023-05-13T13:59:30.904Z,3.23
2023-05-13T14:01:58.616Z,3.30
2023-05-13T14:04:28.120Z,3.17
2023-05-13T14:06:55.757Z,2.70
2023-05-13T14:09:23.962Z,3.17
2023-05-13T14:11:51.735Z,3.17
2023-05-13T14:14:19.205Z,2.63
2023-05-13T14:16:46.770Z,2.53
2023-05-13T14:19:16.008Z,2.93
2023-05-13T14:21:47.062Z,2.97
2023-05-13T14:24:14.511Z,3.30
2023-05-13T14:26:41.983Z,3.33
2023-05-13T14:29:09.401Z,3.40
2023-05-13T14:31:36.791Z,3.10
2023-05-13T14:34:07.867Z,3.17
2023-05-13T14:36:36.053Z,3.27
2023-05-13T14:39:03.589Z,3.40
2023-05-13T14:41:31.047Z,3.50
2023-05-13T14:43:59.049Z,3.70
2023-05-13T14:46:26.435Z,3.50
2023-05-13T14:48:54.383Z,3.77
2023-05-13T14:51:22.101Z,3.50
2023-05-13T14:53:49.879Z,3.30
2023-05-13T14:56:17.215Z,3.63
2023-05-13T14:58:44.577Z,3.03
2023-05-13T15:01:12.216Z,3.57
2023-05-13T15:03:41.718Z,3.50
2023-05-13T15:06:09.315Z,2.90
2023-05-13T15:08:37.769Z,3.17
2023-05-13T15:11:05.383Z,3.20
2023-05-13T15:13:35.655Z,3.50
2023-05-13T15:16:03.506Z,3.27
2023-05-13T15:18:31.365Z,3.60
2023-05-13T15:20:58.843Z,3.90
2023-05-13T15:23:29.472Z,3.70
2023-05-13T15:25:56.930Z,3.80
2023-05-13T15:28:24.549Z,3.80
2023-05-13T15:30:51.926Z,3.70
2023-05-13T15:33:19.231Z,3.20
2023-05-13T15:35:46.699Z,3.53
2023-05-13T15:38:14.092Z,3.67
2023-05-13T15:40:41.659Z,3.57
2023-05-13T15:43:11.776Z,3.50
2023-05-13T15:45:40.108Z,3.60
2023-05-13T15:48:07.696Z,3.03
2023-05-13T15:50:35.307Z,4.00
2023-05-13T15:53:03.075Z,3.93
2023-05-13T15:55:31.898Z,3.40
2023-05-13T15:57:59.630Z,3.80
2023-05-13T16:00:27.117Z,3.63
2023-05-13T16:02:54.692Z,3.97
2023-05-13T16:05:22.257Z,4.00
2023-05-13T16:07:52.938Z,4.13
2023-05-13T16:10:24.151Z,4.10
2023-05-13T16:12:52.229Z,4.30
2023-05-13T16:15:20.528Z,3.87
2023-05-13T16:17:49.281Z,3.90
2023-05-13T16:20:16.638Z,4.07
2023-05-13T16:22:46.974Z,3.87
2023-05-13T16:25:17.770Z,3.60
2023-05-13T16:27:45.316Z,3.30
2023-05-13T16:30:13.211Z,3.47
2023-05-13T16:32:40.800Z,3.50
2023-05-13T16:35:11.910Z,3.50
2023-05-13T16:37:39.647Z,3.87
2023-05-13T16:40:07.683Z,3.90
2023-05-13T16:42:35.130Z,3.60
2023-05-13T16:45:04.434Z,3.90
2023-05-13T16:47:32.235Z,3.60
2023-05-13T16:50:03.508Z,3.80
2023-05-13T16:52:34.099Z,3.47
2023-05-13T16:55:05.866Z,3.63
2023-05-13T16:57:36.420Z,4.10
2023-05-13T17:00:04.726Z,3.77
2023-05-13T17:02:33.567Z,4.13
2023-05-13T17:05:03.692Z,3.73
2023-05-13T17:07:31.034Z,3.50
2023-05-13T17:10:01.255Z,3.70
2023-05-13T17:12:28.696Z,4.13
2023-05-13T17:14:58.424Z,4.20
2023-05-13T17:17:25.810Z,3.53
2023-05-13T17:19:53.400Z,3.87
2023-05-13T17:22:21.348Z,3.87
2023-05-13T17:24:49.421Z,3.60
2023-05-13T17:27:16.800Z,3.93
2023-05-13T17:29:44.190Z,3.60
2023-05-13T17:32:12.715Z,3.83
2023-05-13T17:34:40.401Z,3.93
2023-05-13T17:37:10.131Z,3.83
2023-05-13T17:39:37.980Z,3.47
2023-05-13T17:42:05.444Z,3.70
2023-05-13T17:44:33.180Z,3.87
2023-05-13T17:47:01.732Z,3.60
2023-05-13T17:49:31.667Z,3.70
2023-05-13T17:51:59.016Z,3.10
2023-05-13T17:54:26.340Z,3.60
2023-05-13T17:56:53.781Z,4.00
2023-05-13T17:59:21.145Z,3.30
2023-05-13T18:01:48.539Z,3.30
2023-05-13T18:04:16.083Z,4.03
2023-05-13T18:06:45.622Z,3.77
2023-05-13T18:09:13.140Z,4.20
2023-05-13T18:11:43.416Z,4.37
2023-05-13T18:14:13.626Z,4.00
2023-05-13T18:16:41.065Z,4.03
2023-05-13T18:19:08.596Z,3.33
2023-05-13T18:21:36.107Z,3.50
2023-05-13T18:24:06.953Z,4.00
2023-05-13T18:26:34.603Z,3.90
2023-05-13T18:29:02.876Z,3.23
2023-05-13T18:31:36.325Z,3.10
2023-05-13T18:34:03.818Z,3.70
2023-05-13T18:36:32.709Z,3.37
2023-05-13T18:39:00.782Z,3.80
2023-05-13T18:41:28.474Z,3.70
2023-05-13T18:43:56.178Z,3.70
2023-05-13T18:46:23.653Z,3.87
2023-05-13T18:48:52.267Z,3.43
2023-05-13T18:51:20.955Z,3.37
2023-05-13T18:53:53.743Z,3.57
2023-05-13T18:56:21.462Z,3.50
2023-05-13T18:58:49.407Z,3.30
2023-05-13T19:01:19.870Z,3.77
2023-05-13T19:03:48.074Z,3.57
2023-05-13T19:06:18.239Z,3.97
2023-05-13T19:08:46.083Z,4.37
2023-05-13T19:11:13.724Z,4.80
2023-05-13T19:13:47.186Z,4.77
2023-05-13T19:16:15.889Z,4.70
2023-05-13T19:18:43.432Z,4.07
2023-05-13T19:21:13.115Z,4.43
2023-05-13T19:23:40.652Z,4.70
2023-05-13T19:26:10.968Z,11.13
2023-05-13T19:28:38.986Z,19.63
2023-05-13T19:31:06.475Z,20.53
2023-05-13T19:33:38.137Z,16.57
2023-05-13T19:36:09.263Z,19.37
2023-05-13T19:38:39.104Z,18.17
2023-05-13T19:41:09.934Z,14.70
2023-05-13T19:43:41.101Z,15.00
2023-05-13T19:46:08.532Z,11.17
2023-05-13T19:48:36.229Z,10.43
2023-05-13T19:51:03.711Z,7.50
2023-05-13T19:53:31.113Z,6.43
2023-05-13T19:55:58.564Z,5.30
2023-05-13T19:58:26.487Z,32.00
2023-05-13T20:00:54.219Z,6.00
2023-05-13T20:03:21.784Z,5.87
2023-05-13T20:05:51.203Z,6.90
2023-05-13T20:08:21.272Z,5.40
2023-05-13T20:10:49.013Z,6.93
2023-05-13T20:13:16.677Z,6.63
2023-05-13T20:15:45.185Z,6.33
2023-05-13T20:18:19.152Z,5.43
2023-05-13T20:20:48.088Z,6.67
2023-05-13T20:23:16.788Z,5.73
2023-05-13T20:25:47.182Z,5.60
2023-05-13T20:28:14.934Z,4.77
2023-05-13T20:38:33.185Z,4.10
